createdAt,value
2023-10-04T00:14:24.920Z,0.70
2023-10-04T00:17:01.398Z,0.60
2023-10-04T00:19:33.946Z,0.75
2023-10-04T00:22:10.361Z,1.15
2023-10-04T00:24:46.068Z,0.40
2023-10-04T00:27:20.775Z,0.85
2023-10-04T00:30:01.076Z,0.70
2023-10-04T00:32:36.653Z,0.70
2023-10-04T00:35:17.087Z,0.65
2023-10-04T00:38:02.157Z,0.60
2023-10-04T00:40:41.168Z,0.70
2023-10-04T00:43:24.231Z,1.33
2023-10-04T00:46:04.112Z,0.95
2023-10-04T00:48:40.896Z,0.90
2023-10-04T00:51:17.755Z,1.33
2023-10-04T00:53:51.811Z,0.73
2023-10-04T00:56:31.712Z,1.25
2023-10-04T00:59:07.100Z,0.85
2023-10-04T01:01:43.419Z,0.80
2023-10-04T01:04:20.665Z,1.00
2023-10-04T01:07:00.472Z,1.00
2023-10-04T01:09:35.060Z,0.80
2023-10-04T01:12:13.353Z,0.90
2023-10-04T01:14:51.268Z,0.70
2023-10-04T01:17:30.394Z,0.60
2023-10-04T01:20:14.001Z,0.82
2023-10-04T01:22:50.058Z,1.08
2023-10-04T01:25:25.221Z,0.90
2023-10-04T01:28:09.150Z,1.35
2023-10-04T01:30:47.052Z,0.80
2023-10-04T01:33:22.877Z,1.15
2023-10-04T01:36:06.432Z,1.03
2023-10-04T01:38:48.778Z,0.70
2023-10-04T01:41:24.371Z,0.70
2023-10-04T01:44:04.585Z,0.80
2023-10-04T01:46:42.851Z,0.90
2023-10-04T01:49:19.291Z,0.57
2023-10-04T01:51:56.531Z,0.57
2023-10-04T01:54:35.372Z,0.70
2023-10-04T01:57:13.871Z,0.65
2023-10-04T01:59:49.364Z,0.67
2023-10-04T02:02:29.218Z,0.70
2023-10-04T02:05:07.998Z,1.05
2023-10-04T02:07:47.958Z,1.13
2023-10-04T02:10:29.766Z,0.95
2023-10-04T02:13:04.727Z,0.75
2023-10-04T02:15:43.321Z,0.95
2023-10-04T02:18:19.602Z,1.00
2023-10-04T02:21:01.389Z,0.90
2023-10-04T02:23:35.686Z,0.90
2023-10-04T02:26:11.559Z,1.10
2023-10-04T02:28:53.028Z,0.73
2023-10-04T02:31:31.852Z,0.80
2023-10-04T02:34:12.475Z,0.80
2023-10-04T02:36:49.084Z,1.08
2023-10-04T02:39:26.282Z,1.10
2023-10-04T02:42:11.129Z,1.02
2023-10-04T02:44:47.125Z,1.00
2023-10-04T02:47:22.674Z,1.20
2023-10-04T02:50:00.015Z,1.10
2023-10-04T02:52:33.506Z,1.00
2023-10-04T02:55:07.930Z,1.25
2023-10-04T02:57:51.310Z,1.83
2023-10-04T03:00:27.079Z,1.40
2023-10-04T03:03:16.461Z,1.20
2023-10-04T03:05:53.629Z,2.40
2023-10-04T03:08:34.155Z,1.40
2023-10-04T03:11:17.617Z,1.10
2023-10-04T03:14:00.759Z,1.30
2023-10-04T03:16:38.964Z,1.20
2023-10-04T03:19:14.279Z,1.30
2023-10-04T03:21:49.350Z,1.20
2023-10-04T03:24:25.522Z,1.20
2023-10-04T03:27:06.518Z,1.20
2023-10-04T03:29:44.913Z,1.47
2023-10-04T03:32:18.005Z,1.60
2023-10-04T03:34:55.847Z,1.27
2023-10-04T03:37:40.592Z,1.20
2023-10-04T03:40:21.427Z,1.30
2023-10-04T03:42:56.982Z,1.20
2023-10-04T03:45:35.373Z,1.55
2023-10-04T03:48:28.675Z,0.80
2023-10-04T03:51:10.644Z,0.93
2023-10-04T03:53:55.046Z,1.20
2023-10-04T03:56:37.224Z,0.82
2023-10-04T03:59:12.534Z,1.25
2023-10-04T04:01:49.933Z,1.00
2023-10-04T04:04:29.174Z,0.90
2023-10-04T04:07:20.852Z,1.10
2023-10-04T04:10:02.788Z,1.30
2023-10-04T04:12:38.104Z,1.23
2023-10-04T04:15:16.526Z,1.02
2023-10-04T04:17:55.812Z,1.20
2023-10-04T04:20:36.009Z,0.90
2023-10-04T04:23:15.185Z,1.00
2023-10-04T04:25:53.284Z,0.98
2023-10-04T04:28:31.342Z,1.00
2023-10-04T04:31:11.057Z,0.90
2023-10-04T04:33:48.251Z,0.95
2023-10-04T04:36:27.891Z,1.15
2023-10-04T04:39:13.486Z,0.95
2023-10-04T04:41:52.831Z,1.13
2023-10-04T04:44:40.559Z,0.80
2023-10-04T04:47:18.641Z,1.00
2023-10-04T04:50:09.959Z,0.70
2023-10-04T04:52:47.582Z,1.00
2023-10-04T04:55:27.698Z,0.70
2023-10-04T04:58:02.385Z,1.38
2023-10-04T05:00:45.667Z,0.73
2023-10-04T05:03:20.335Z,0.90
2023-10-04T05:05:58.250Z,0.85
2023-10-04T05:08:35.606Z,1.20
2023-10-04T05:11:10.763Z,0.90
2023-10-04T05:13:47.396Z,0.50
2023-10-04T05:16:20.910Z,0.70
2023-10-04T05:19:01.723Z,0.80
2023-10-04T05:21:39.680Z,0.50
2023-10-04T05:24:19.083Z,1.20
2023-10-04T05:26:57.751Z,0.50
2023-10-04T05:29:41.016Z,0.47
2023-10-04T05:32:14.623Z,0.70
2023-10-04T05:34:53.143Z,0.90
2023-10-04T05:37:37.138Z,0.95
2023-10-04T05:40:26.910Z,0.55
2023-10-04T05:43:07.787Z,0.80
2023-10-04T05:45:45.804Z,0.80
2023-10-04T05:48:22.480Z,0.50
2023-10-04T05:50:56.467Z,0.40
2023-10-04T05:53:34.280Z,0.80
2023-10-04T05:56:12.331Z,0.77
2023-10-04T05:58:54.958Z,0.80
2023-10-04T06:01:30.155Z,0.60
2023-10-04T06:04:04.960Z,0.50
2023-10-04T06:06:47.241Z,0.60
2023-10-04T06:09:44.412Z,0.70
2023-10-04T06:12:31.305Z,0.60
2023-10-04T06:15:15.291Z,0.85
2023-10-04T06:17:56.682Z,0.77
2023-10-04T06:23:34.811Z,0.87
2023-10-04T06:29:45.428Z,0.73
2023-10-04T06:32:27.224Z,1.00
2023-10-04T06:38:33.451Z,0.40
2023-10-04T06:44:45.870Z,0.77
2023-10-04T06:47:26.373Z,0.63
2023-10-04T06:50:17.569Z,0.67
2023-10-04T06:56:03.139Z,0.77
2023-10-04T06:59:17.585Z,0.50
2023-10-04T07:02:26.327Z,0.70
2023-10-04T07:05:07.235Z,0.80
2023-10-04T07:08:04.224Z,0.50
2023-10-04T07:10:40.258Z,0.80
2023-10-04T07:13:18.679Z,0.50
2023-10-04T07:15:58.379Z,0.70
2023-10-04T07:18:39.406Z,1.20
2023-10-04T07:21:21.523Z,0.68
2023-10-04T07:29:56.556Z,0.50
2023-10-04T07:32:43.747Z,0.80
2023-10-04T07:38:46.352Z,0.60
2023-10-04T07:41:22.518Z,0.70
2023-10-04T07:44:02.620Z,0.65
2023-10-04T07:50:00.491Z,0.75
2023-10-04T07:55:50.400Z,0.60
2023-10-04T07:58:40.713Z,1.00
2023-10-04T08:01:30.650Z,0.50
2023-10-04T08:04:11.148Z,0.60
2023-10-04T08:06:55.876Z,0.88
2023-10-04T08:09:35.171Z,0.68
2023-10-04T08:12:14.013Z,0.90
2023-10-04T08:14:56.328Z,0.47
2023-10-04T08:17:43.440Z,0.57
2023-10-04T08:20:48.253Z,0.55
2023-10-04T08:24:06.330Z,0.57
2023-10-04T08:27:01.409Z,0.53
2023-10-04T08:33:12.555Z,0.98
2023-10-04T08:49:03.048Z,0.80
2023-10-04T08:51:45.744Z,0.73
2023-10-04T08:54:20.684Z,0.70
2023-10-04T08:56:59.488Z,0.80
2023-10-04T08:59:33.724Z,0.70
2023-10-04T09:02:09.081Z,0.45
2023-10-04T09:04:49.579Z,0.68
2023-10-04T09:07:33.588Z,0.75
2023-10-04T09:10:16.650Z,0.80
2023-10-04T09:12:58.865Z,0.70
2023-10-04T09:15:33.550Z,0.55
2023-10-04T09:18:09.333Z,0.77
2023-10-04T09:23:24.808Z,0.90
2023-10-04T09:26:00.305Z,0.80
2023-10-04T09:28:42.617Z,0.70
2023-10-04T09:31:20.685Z,1.00
2023-10-04T09:33:55.990Z,0.75
2023-10-04T09:36:44.047Z,1.10
2023-10-04T09:39:25.360Z,0.80
2023-10-04T09:42:01.363Z,0.90
2023-10-04T09:44:39.568Z,0.55
2023-10-04T09:47:13.918Z,1.00
2023-10-04T09:49:56.536Z,0.95
2023-10-04T09:52:36.906Z,1.00
2023-10-04T09:55:15.545Z,0.80
2023-10-04T09:57:54.105Z,0.75
2023-10-04T10:00:30.852Z,0.50
2023-10-04T10:03:11.744Z,0.50
2023-10-04T10:05:50.539Z,0.45
2023-10-04T10:08:30.371Z,0.77
2023-10-04T10:11:08.356Z,0.70
2023-10-04T10:13:46.121Z,0.55
2023-10-04T10:16:33.683Z,1.10
2023-10-04T10:19:12.572Z,0.88
2023-10-04T10:22:12.476Z,0.93
2023-10-04T10:24:54.909Z,0.93
2023-10-04T10:27:30.623Z,0.80
2023-10-04T10:30:09.902Z,0.70
2023-10-04T10:32:55.970Z,0.70
2023-10-04T10:36:01.017Z,0.60
2023-10-04T10:38:49.575Z,0.60
2023-10-04T10:42:09.522Z,1.00
2023-10-04T10:44:54.604Z,0.53
2023-10-04T10:47:33.040Z,1.13
2023-10-04T10:50:09.208Z,0.75
2023-10-04T10:52:53.518Z,0.80
2023-10-04T10:55:30.658Z,0.75
2023-10-04T10:58:06.464Z,0.90
2023-10-04T11:03:19.465Z,1.00
2023-10-04T11:06:03.441Z,0.90
2023-10-04T11:08:39.744Z,0.55
2023-10-04T11:11:15.058Z,0.87
2023-10-04T11:13:54.482Z,0.90
2023-10-04T11:16:35.256Z,0.75
2023-10-04T11:19:14.238Z,0.90
2023-10-04T11:22:07.640Z,0.73
2023-10-04T11:24:48.216Z,0.60
2023-10-04T11:27:28.868Z,0.77
2023-10-04T11:30:07.996Z,1.10
2023-10-04T11:32:52.880Z,0.70
2023-10-04T11:35:38.376Z,0.93
2023-10-04T11:38:20.771Z,1.10
2023-10-04T11:40:59.210Z,1.00
2023-10-04T11:43:36.631Z,0.55
2023-10-04T11:46:13.550Z,0.60
2023-10-04T11:48:53.031Z,0.98
2023-10-04T11:51:35.238Z,0.80
2023-10-04T11:54:13.238Z,1.00
2023-10-04T11:56:49.686Z,0.77
2023-10-04T11:59:42.441Z,0.70
2023-10-04T12:02:18.413Z,0.80
2023-10-04T12:04:58.781Z,0.50
2023-10-04T12:07:34.930Z,0.70
2023-10-04T12:10:18.322Z,0.93
2023-10-04T12:12:59.480Z,0.60
2023-10-04T12:15:38.266Z,1.00
2023-10-04T12:18:17.659Z,0.85
2023-10-04T12:20:54.192Z,1.00
2023-10-04T12:23:34.547Z,0.82
2023-10-04T12:26:17.106Z,1.13
2023-10-04T12:28:53.322Z,0.77
2023-10-04T12:31:32.602Z,0.90
2023-10-04T12:34:09.159Z,0.77
2023-10-04T12:36:55.667Z,1.08
2023-10-04T12:39:40.489Z,0.93
2023-10-04T12:42:18.443Z,0.70
2023-10-04T12:44:58.293Z,0.98
2023-10-04T12:47:55.125Z,1.05
2023-10-04T12:50:35.792Z,0.85
2023-10-04T12:53:11.537Z,0.95
2023-10-04T12:55:52.145Z,1.02
2023-10-04T12:58:28.749Z,1.08
2023-10-04T13:01:15.176Z,0.90
2023-10-04T13:03:52.852Z,0.90
2023-10-04T13:06:35.897Z,0.73
2023-10-04T13:09:21.150Z,0.80
2023-10-04T13:12:02.525Z,0.80
2023-10-04T13:14:38.710Z,0.97
2023-10-04T13:17:18.038Z,0.50
2023-10-04T13:19:54.437Z,0.80
2023-10-04T13:22:31.978Z,0.90
2023-10-04T13:25:10.779Z,0.93
2023-10-04T13:27:49.835Z,1.02
2023-10-04T13:30:35.290Z,0.88
2023-10-04T13:33:30.576Z,0.73
2023-10-04T13:36:07.378Z,0.90
2023-10-04T13:38:45.369Z,0.70
2023-10-04T13:41:26.012Z,1.10
2023-10-04T13:44:07.019Z,0.95
2023-10-04T13:46:44.812Z,0.80
2023-10-04T13:49:26.006Z,0.70
2023-10-04T13:52:15.473Z,0.77
2023-10-04T13:54:57.150Z,1.00
2023-10-04T13:57:40.183Z,1.10
2023-10-04T14:00:26.327Z,0.80
2023-10-04T14:05:40.598Z,1.25
2023-10-04T14:08:20.880Z,1.20
2023-10-04T14:10:59.930Z,0.90
2023-10-04T14:13:34.783Z,1.43
2023-10-04T14:19:23.260Z,1.23
2023-10-04T14:21:59.609Z,1.00
2023-10-04T14:24:37.224Z,1.20
2023-10-04T14:27:17.638Z,1.25
2023-10-04T14:29:55.945Z,1.40
2023-10-04T14:32:34.866Z,1.40
2023-10-04T14:35:16.132Z,1.30
2023-10-04T14:37:52.329Z,1.07
2023-10-04T14:40:39.928Z,1.60
2023-10-04T14:43:22.817Z,1.50
2023-10-04T14:46:05.538Z,1.10
2023-10-04T14:48:45.245Z,1.13
2023-10-04T14:51:29.737Z,1.00
2023-10-04T14:54:05.755Z,1.20
2023-10-04T14:56:46.553Z,1.10
2023-10-04T14:59:36.182Z,1.50
2023-10-04T15:02:26.757Z,1.20
2023-10-04T15:05:22.782Z,1.20
2023-10-04T15:08:11.168Z,1.03
2023-10-04T15:10:56.246Z,1.40
2023-10-04T15:13:33.228Z,1.50
2023-10-04T15:16:13.890Z,1.90
2023-10-04T15:18:56.973Z,1.45
2023-10-04T15:59:32.069Z,1.13
2023-10-04T16:27:08.426Z,3.10
2023-10-04T16:36:15.110Z,2.53
2023-10-04T17:06:03.151Z,2.50
2023-10-04T17:17:55.185Z,2.15
2023-10-04T17:20:37.776Z,2.00
2023-10-04T17:23:18.219Z,1.50
2023-10-04T17:25:53.085Z,1.75
2023-10-04T17:28:46.289Z,1.88
2023-10-04T17:43:54.221Z,1.47
2023-10-04T17:56:11.809Z,1.65
2023-10-04T17:58:59.742Z,1.40
2023-10-04T18:04:38.457Z,1.95
2023-10-04T18:10:20.478Z,1.38
2023-10-04T18:18:31.191Z,1.50
2023-10-04T18:21:11.105Z,1.85
2023-10-04T18:23:49.488Z,1.83
2023-10-04T18:26:28.779Z,2.00
2023-10-04T18:29:13.045Z,1.70
2023-10-04T18:31:55.925Z,2.10
2023-10-04T18:34:46.740Z,1.55
2023-10-04T18:37:23.483Z,1.77
2023-10-04T18:39:57.189Z,1.77
2023-10-04T18:42:31.283Z,1.37
2023-10-04T18:45:08.687Z,1.35
2023-10-04T18:47:43.326Z,1.95
2023-10-04T18:50:26.779Z,1.98
2023-10-04T18:53:05.088Z,1.70
2023-10-04T18:56:05.593Z,1.83
2023-10-04T18:58:43.076Z,2.00
2023-10-04T19:01:25.923Z,1.58
2023-10-04T19:07:20.364Z,2.10
2023-10-04T19:09:57.291Z,1.90
2023-10-04T19:12:42.017Z,1.90
2023-10-04T19:15:29.518Z,2.10
2023-10-04T19:18:06.087Z,1.90
2023-10-04T19:20:43.358Z,2.00
2023-10-04T19:23:26.030Z,2.30
2023-10-04T19:26:01.385Z,2.50
2023-10-04T19:28:46.400Z,2.83
2023-10-04T19:31:27.209Z,2.13
2023-10-04T19:34:06.331Z,1.55
2023-10-04T19:36:45.749Z,2.40
2023-10-04T19:39:24.926Z,1.73
2023-10-04T19:42:01.405Z,2.27
2023-10-04T19:44:46.869Z,2.15
2023-10-04T19:47:32.971Z,1.75
2023-10-04T19:50:13.404Z,2.17
2023-10-04T19:53:00.034Z,1.80
2023-10-04T19:55:38.107Z,2.20
2023-10-04T19:58:15.597Z,2.13
2023-10-04T20:01:03.017Z,1.95
2023-10-04T20:03:54.202Z,2.17
2023-10-04T20:06:40.589Z,2.42
2023-10-04T20:09:24.384Z,2.07
2023-10-04T20:12:07.076Z,2.05
2023-10-04T20:14:52.966Z,2.00
2023-10-04T20:17:36.608Z,2.53
2023-10-04T20:20:24.392Z,2.63
2023-10-04T20:23:10.234Z,2.43
2023-10-04T20:25:53.792Z,2.30
2023-10-04T20:31:36.171Z,2.03
2023-10-04T20:34:14.447Z,2.20
2023-10-04T20:36:57.453Z,2.75
2023-10-04T20:39:37.107Z,2.47
2023-10-04T20:42:16.368Z,2.78
2023-10-04T20:44:51.056Z,2.08
2023-10-04T20:47:53.723Z,2.08
2023-10-04T20:50:36.189Z,2.73
2023-10-04T20:53:13.029Z,2.25
2023-10-04T20:55:49.040Z,2.00
2023-10-04T20:58:29.778Z,2.28
2023-10-04T21:01:04.756Z,2.40
2023-10-04T21:03:41.435Z,1.85
2023-10-04T21:06:25.915Z,1.75
2023-10-04T21:09:04.786Z,2.30
2023-10-04T21:11:40.728Z,2.10
2023-10-04T21:16:48.972Z,2.00
2023-10-04T21:19:29.021Z,2.22
2023-10-04T21:22:12.783Z,1.90
2023-10-04T21:24:48.987Z,2.13
2023-10-04T21:27:27.319Z,2.00
2023-10-04T21:30:10.696Z,2.50
2023-10-04T21:33:10.344Z,2.50
2023-10-04T21:35:47.863Z,2.17
2023-10-04T21:38:28.253Z,3.50
2023-10-04T21:41:11.723Z,2.42
2023-10-04T21:44:03.323Z,2.93
2023-10-04T21:46:42.454Z,2.20
2023-10-04T21:49:17.002Z,2.15
2023-10-04T21:52:07.645Z,2.38
2023-10-04T21:54:47.948Z,1.88
2023-10-04T21:57:23.397Z,2.50
2023-10-04T21:59:57.386Z,2.25
2023-10-04T22:02:36.208Z,2.60
2023-10-04T22:05:15.109Z,2.10
2023-10-04T22:10:42.586Z,2.53
2023-10-04T22:13:18.406Z,3.15
2023-10-04T22:15:53.617Z,2.80
2023-10-04T22:21:28.319Z,2.50
2023-10-04T22:27:09.497Z,2.33
2023-10-04T22:29:56.061Z,2.20
2023-10-04T22:32:38.364Z,2.80
2023-10-04T22:35:16.233Z,3.00
2023-10-04T22:37:53.750Z,3.30
2023-10-04T22:40:30.910Z,2.67
2023-10-04T22:43:10.080Z,2.45
2023-10-04T22:45:43.200Z,3.13
2023-10-04T22:48:20.567Z,2.80
2023-10-04T22:51:08.008Z,3.00
2023-10-04T22:53:48.233Z,2.83
2023-10-04T22:59:25.729Z,2.45
2023-10-04T23:02:02.220Z,2.70
2023-10-04T23:04:47.855Z,3.20
2023-10-04T23:07:26.875Z,3.20
2023-10-04T23:10:02.427Z,3.25
2023-10-04T23:12:38.730Z,2.37
2023-10-04T23:15:30.313Z,2.88
2023-10-04T23:18:14.444Z,2.27
2023-10-04T23:20:57.799Z,2.47
2023-10-04T23:23:34.163Z,3.57
2023-10-04T23:26:17.461Z,3.53
2023-10-04T23:28:54.881Z,3.10
2023-10-04T23:31:39.451Z,3.00
2023-10-04T23:34:19.214Z,2.75
2023-10-04T23:36:58.348Z,2.50
2023-10-04T23:39:43.840Z,3.70
2023-10-04T23:42:21.786Z,2.95
2023-10-04T23:44:58.021Z,3.75
2023-10-04T23:47:42.196Z,2.67
2023-10-04T23:50:22.409Z,3.42
2023-10-04T23:53:02.417Z,3.08
2023-10-04T23:55:38.534Z,3.15
2023-10-04T23:58:18.525Z,2.80
